sensor_id;sensor_type;location;lat;lon;timestamp;P1;durP1;ratioP1;P2;durP2;ratioP2
6723;SDS011;3399;52.530;13.304;2023-07-22T00:00:48;6.77;;;4.50;;
6723;SDS011;3399;52.530;13.304;2023-07-22T00:03:14;4.47;;;4.07;;
6723;SDS011;3399;52.530;13.304;2023-07-22T00:05:39;4.17;;;3.83;;
6723;SDS011;3399;52.530;13.304;2023-07-22T00:08:05;3.90;;;3.53;;
6723;SDS011;3399;52.530;13.304;2023-07-22T00:10:31;3.93;;;3.63;;
6723;SDS011;3399;52.530;13.304;2023-07-22T00:12:56;5.93;;;3.93;;
6723;SDS011;3399;52.530;13.304;2023-07-22T00:15:22;4.77;;;4.07;;
6723;SDS011;3399;52.530;13.304;2023-07-22T00:17:49;4.40;;;4.10;;
6723;SDS011;3399;52.530;13.304;2023-07-22T00:20:15;5.90;;;5.13;;
6723;SDS011;3399;52.530;13.304;2023-07-22T00:22:41;4.97;;;4.57;;
6723;SDS011;3399;52.530;13.304;2023-07-22T00:25:07;5.40;;;4.90;;
6723;SDS011;3399;52.530;13.304;2023-07-22T00:27:37;4.53;;;4.20;;
6723;SDS011;3399;52.530;13.304;2023-07-22T00:30:04;4.77;;;4.27;;
6723;SDS011;3399;52.530;13.304;2023-07-22T00:32:31;4.80;;;4.47;;
6723;SDS011;3399;52.530;13.304;2023-07-22T00:34:57;5.40;;;4.70;;
6723;SDS011;3399;52.530;13.304;2023-07-22T00:37:22;5.27;;;4.80;;
6723;SDS011;3399;52.530;13.304;2023-07-22T00:39:48;4.30;;;4.00;;
6723;SDS011;3399;52.530;13.304;2023-07-22T00:42:13;5.27;;;4.77;;
6723;SDS011;3399;52.530;13.304;2023-07-22T00:44:39;5.73;;;5.23;;
6723;SDS011;3399;52.530;13.304;2023-07-22T00:47:04;4.60;;;4.30;;
6723;SDS011;3399;52.530;13.304;2023-07-22T00:49:30;6.40;;;5.80;;
6723;SDS011;3399;52.530;13.304;2023-07-22T00:51:58;6.50;;;5.90;;
6723;SDS011;3399;52.530;13.304;2023-07-22T00:54:29;6.27;;;5.67;;
6723;SDS011;3399;52.530;13.304;2023-07-22T00:56:56;6.77;;;5.67;;
6723;SDS011;3399;52.530;13.304;2023-07-22T00:59:22;5.97;;;5.47;;
6723;SDS011;3399;52.530;13.304;2023-07-22T01:01:48;6.30;;;5.63;;
6723;SDS011;3399;52.530;13.304;2023-07-22T01:04:14;6.30;;;5.80;;
6723;SDS011;3399;52.530;13.304;2023-07-22T01:06:43;7.13;;;6.43;;
6723;SDS011;3399;52.530;13.304;2023-07-22T01:09:09;5.93;;;5.43;;
6723;SDS011;3399;52.530;13.304;2023-07-22T01:11:35;11.07;;;6.13;;
6723;SDS011;3399;52.530;13.304;2023-07-22T01:14:00;8.07;;;6.67;;
6723;SDS011;3399;52.530;13.304;2023-07-22T01:16:27;6.27;;;5.77;;
6723;SDS011;3399;52.530;13.304;2023-07-22T01:18:53;8.47;;;6.83;;
6723;SDS011;3399;52.530;13.304;2023-07-22T01:21:20;7.57;;;6.67;;
6723;SDS011;3399;52.530;13.304;2023-07-22T01:23:47;7.27;;;6.53;;
6723;SDS011;3399;52.530;13.304;2023-07-22T01:26:13;7.17;;;6.57;;
6723;SDS011;3399;52.530;13.304;2023-07-22T01:28:39;7.27;;;6.67;;
6723;SDS011;3399;52.530;13.304;2023-07-22T01:31:05;7.57;;;6.77;;
6723;SDS011;3399;52.530;13.304;2023-07-22T01:33:31;10.30;;;7.03;;
6723;SDS011;3399;52.530;13.304;2023-07-22T01:35:56;8.33;;;7.63;;
6723;SDS011;3399;52.530;13.304;2023-07-22T01:38:22;7.80;;;7.13;;
6723;SDS011;3399;52.530;13.304;2023-07-22T01:40:48;8.47;;;7.77;;
6723;SDS011;3399;52.530;13.304;2023-07-22T01:43:13;7.13;;;6.53;;
6723;SDS011;3399;52.530;13.304;2023-07-22T01:45:39;9.07;;;8.17;;
6723;SDS011;3399;52.530;13.304;2023-07-22T01:48:04;7.90;;;7.23;;
6723;SDS011;3399;52.530;13.304;2023-07-22T01:50:31;8.20;;;7.47;;
6723;SDS011;3399;52.530;13.304;2023-07-22T01:52:57;11.40;;;8.20;;
6723;SDS011;3399;52.530;13.304;2023-07-22T01:55:22;9.83;;;7.47;;
6723;SDS011;3399;52.530;13.304;2023-07-22T01:57:48;7.53;;;6.93;;
6723;SDS011;3399;52.530;13.304;2023-07-22T02:00:13;7.77;;;6.87;;
6723;SDS011;3399;52.530;13.304;2023-07-22T02:02:40;8.37;;;7.67;;
6723;SDS011;3399;52.530;13.304;2023-07-22T02:05:07;7.13;;;6.63;;
6723;SDS011;3399;52.530;13.304;2023-07-22T02:07:34;8.77;;;8.03;;
6723;SDS011;3399;52.530;13.304;2023-07-22T02:10:00;8.07;;;7.33;;
6723;SDS011;3399;52.530;13.304;2023-07-22T02:12:25;7.40;;;6.67;;
6723;SDS011;3399;52.530;13.304;2023-07-22T02:14:51;7.20;;;6.60;;
6723;SDS011;3399;52.530;13.304;2023-07-22T02:17:16;7.00;;;6.50;;
6723;SDS011;3399;52.530;13.304;2023-07-22T02:19:42;7.63;;;7.03;;
6723;SDS011;3399;52.530;13.304;2023-07-22T02:22:11;7.40;;;6.90;;
6723;SDS011;3399;52.530;13.304;2023-07-22T02:24:38;8.63;;;7.93;;
6723;SDS011;3399;52.530;13.304;2023-07-22T02:27:03;7.33;;;6.73;;
6723;SDS011;3399;52.530;13.304;2023-07-22T02:29:29;7.87;;;7.17;;
6723;SDS011;3399;52.530;13.304;2023-07-22T02:31:56;6.77;;;6.23;;
6723;SDS011;3399;52.530;13.304;2023-07-22T02:34:22;7.33;;;6.63;;
6723;SDS011;3399;52.530;13.304;2023-07-22T02:36:48;8.10;;;6.40;;
6723;SDS011;3399;52.530;13.304;2023-07-22T02:39:14;7.93;;;7.20;;
6723;SDS011;3399;52.530;13.304;2023-07-22T02:41:39;7.47;;;6.80;;
6723;SDS011;3399;52.530;13.304;2023-07-22T02:44:05;6.93;;;6.43;;
6723;SDS011;3399;52.530;13.304;2023-07-22T02:46:30;7.10;;;6.43;;
6723;SDS011;3399;52.530;13.304;2023-07-22T02:48:56;6.83;;;5.83;;
6723;SDS011;3399;52.530;13.304;2023-07-22T02:51:22;6.43;;;5.90;;
6723;SDS011;3399;52.530;13.304;2023-07-22T02:53:48;6.43;;;5.90;;
6723;SDS011;3399;52.530;13.304;2023-07-22T02:56:14;6.87;;;6.23;;
6723;SDS011;3399;52.530;13.304;2023-07-22T02:58:39;6.87;;;6.33;;
6723;SDS011;3399;52.530;13.304;2023-07-22T03:01:06;8.00;;;6.60;;
6723;SDS011;3399;52.530;13.304;2023-07-22T03:03:33;6.70;;;6.10;;
6723;SDS011;3399;52.530;13.304;2023-07-22T03:06:00;6.80;;;6.23;;
6723;SDS011;3399;52.530;13.304;2023-07-22T03:08:27;7.13;;;6.63;;
6723;SDS011;3399;52.530;13.304;2023-07-22T03:10:52;7.23;;;6.47;;
6723;SDS011;3399;52.530;13.304;2023-07-22T03:13:18;6.43;;;5.93;;
6723;SDS011;3399;52.530;13.304;2023-07-22T03:15:44;7.37;;;5.47;;
6723;SDS011;3399;52.530;13.304;2023-07-22T03:18:09;6.03;;;5.60;;
6723;SDS011;3399;52.530;13.304;2023-07-22T03:20:38;6.07;;;5.47;;
6723;SDS011;3399;52.530;13.304;2023-07-22T03:23:04;6.10;;;5.60;;
6723;SDS011;3399;52.530;13.304;2023-07-22T03:25:31;5.37;;;4.97;;
6723;SDS011;3399;52.530;13.304;2023-07-22T03:27:59;9.70;;;5.93;;
6723;SDS011;3399;52.530;13.304;2023-07-22T03:30:28;6.30;;;5.77;;
6723;SDS011;3399;52.530;13.304;2023-07-22T03:33:05;5.47;;;4.97;;
6723;SDS011;3399;52.530;13.304;2023-07-22T03:35:30;5.10;;;4.70;;
6723;SDS011;3399;52.530;13.304;2023-07-22T03:37:57;6.33;;;5.10;;
6723;SDS011;3399;52.530;13.304;2023-07-22T03:40:23;5.70;;;5.13;;
6723;SDS011;3399;52.530;13.304;2023-07-22T03:42:54;5.67;;;5.03;;
6723;SDS011;3399;52.530;13.304;2023-07-22T03:45:21;6.13;;;5.40;;
6723;SDS011;3399;52.530;13.304;2023-07-22T03:47:50;6.77;;;5.17;;
6723;SDS011;3399;52.530;13.304;2023-07-22T03:50:17;6.53;;;5.80;;
6723;SDS011;3399;52.530;13.304;2023-07-22T03:52:43;5.07;;;4.70;;
6723;SDS011;3399;52.530;13.304;2023-07-22T03:55:09;7.47;;;5.50;;
6723;SDS011;3399;52.530;13.304;2023-07-22T03:57:34;5.53;;;5.13;;
6723;SDS011;3399;52.530;13.304;2023-07-22T04:00:00;6.00;;;5.03;;
6723;SDS011;3399;52.530;13.304;2023-07-22T04:02:25;5.23;;;4.83;;
6723;SDS011;3399;52.530;13.304;2023-07-22T04:04:52;5.63;;;5.13;;
6723;SDS011;3399;52.530;13.304;2023-07-22T04:07:18;5.17;;;4.77;;
6723;SDS011;3399;52.530;13.304;2023-07-22T04:09:44;5.73;;;5.13;;
6723;SDS011;3399;52.530;13.304;2023-07-22T04:12:12;5.30;;;4.63;;
6723;SDS011;3399;52.530;13.304;2023-07-22T04:14:38;6.53;;;5.40;;
6723;SDS011;3399;52.530;13.304;2023-07-22T04:17:04;6.00;;;5.00;;
6723;SDS011;3399;52.530;13.304;2023-07-22T04:19:30;5.73;;;5.03;;
6723;SDS011;3399;52.530;13.304;2023-07-22T04:21:55;8.00;;;4.80;;
6723;SDS011;3399;52.530;13.304;2023-07-22T04:24:21;4.53;;;4.23;;
6723;SDS011;3399;52.530;13.304;2023-07-22T04:26:47;5.00;;;4.53;;
6723;SDS011;3399;52.530;13.304;2023-07-22T04:29:12;5.40;;;4.90;;
6723;SDS011;3399;52.530;13.304;2023-07-22T04:31:38;6.93;;;5.10;;
6723;SDS011;3399;52.530;13.304;2023-07-22T04:34:04;4.33;;;4.03;;
6723;SDS011;3399;52.530;13.304;2023-07-22T04:36:33;5.13;;;4.67;;
6723;SDS011;3399;52.530;13.304;2023-07-22T04:38:58;4.60;;;4.30;;
6723;SDS011;3399;52.530;13.304;2023-07-22T04:41:24;5.10;;;4.23;;
6723;SDS011;3399;52.530;13.304;2023-07-22T04:43:50;4.80;;;4.30;;
6723;SDS011;3399;52.530;13.304;2023-07-22T04:46:16;5.77;;;5.27;;
6723;SDS011;3399;52.530;13.304;2023-07-22T04:48:42;4.93;;;4.53;;
6723;SDS011;3399;52.530;13.304;2023-07-22T04:51:07;5.00;;;4.60;;
6723;SDS011;3399;52.530;13.304;2023-07-22T04:53:33;5.37;;;4.83;;
6723;SDS011;3399;52.530;13.304;2023-07-22T04:55:58;4.77;;;4.37;;
6723;SDS011;3399;52.530;13.304;2023-07-22T04:58:24;9.40;;;4.70;;
6723;SDS011;3399;52.530;13.304;2023-07-22T05:00:49;6.70;;;5.00;;
6723;SDS011;3399;52.530;13.304;2023-07-22T05:03:15;5.43;;;4.93;;
6723;SDS011;3399;52.530;13.304;2023-07-22T05:05:41;6.87;;;4.90;;
6723;SDS011;3399;52.530;13.304;2023-07-22T05:08:07;5.60;;;5.10;;
6723;SDS011;3399;52.530;13.304;2023-07-22T05:10:33;7.27;;;5.60;;
6723;SDS011;3399;52.530;13.304;2023-07-22T05:12:58;6.83;;;6.00;;
6723;SDS011;3399;52.530;13.304;2023-07-22T05:15:24;6.43;;;5.83;;
6723;SDS011;3399;52.530;13.304;2023-07-22T05:17:50;6.43;;;5.80;;
6723;SDS011;3399;52.530;13.304;2023-07-22T05:20:16;8.00;;;6.47;;
6723;SDS011;3399;52.530;13.304;2023-07-22T05:22:42;7.23;;;6.53;;
6723;SDS011;3399;52.530;13.304;2023-07-22T05:25:07;6.43;;;5.67;;
6723;SDS011;3399;52.530;13.304;2023-07-22T05:27:34;8.93;;;6.33;;
6723;SDS011;3399;52.530;13.304;2023-07-22T05:30:00;6.47;;;5.87;;
6723;SDS011;3399;52.530;13.304;2023-07-22T05:32:25;7.47;;;6.77;;
6723;SDS011;3399;52.530;13.304;2023-07-22T05:34:53;6.70;;;6.13;;
6723;SDS011;3399;52.530;13.304;2023-07-22T05:37:19;6.93;;;6.23;;
6723;SDS011;3399;52.530;13.304;2023-07-22T05:39:44;8.80;;;7.77;;
6723;SDS011;3399;52.530;13.304;2023-07-22T05:42:10;7.80;;;7.00;;
6723;SDS011;3399;52.530;13.304;2023-07-22T05:44:35;7.50;;;6.10;;
6723;SDS011;3399;52.530;13.304;2023-07-22T05:47:01;11.40;;;8.57;;
6723;SDS011;3399;52.530;13.304;2023-07-22T05:49:27;8.23;;;7.23;;
6723;SDS011;3399;52.530;13.304;2023-07-22T05:51:53;8.87;;;7.23;;
6723;SDS011;3399;52.530;13.304;2023-07-22T05:54:19;11.20;;;8.00;;
6723;SDS011;3399;52.530;13.304;2023-07-22T05:56:44;9.17;;;7.00;;
6723;SDS011;3399;52.530;13.304;2023-07-22T05:59:10;8.60;;;7.70;;
6723;SDS011;3399;52.530;13.304;2023-07-22T06:01:36;8.20;;;6.83;;
6723;SDS011;3399;52.530;13.304;2023-07-22T06:04:03;9.57;;;8.00;;
6723;SDS011;3399;52.530;13.304;2023-07-22T06:06:29;9.23;;;7.87;;
6723;SDS011;3399;52.530;13.304;2023-07-22T06:08:54;10.13;;;8.40;;
6723;SDS011;3399;52.530;13.304;2023-07-22T06:11:20;8.33;;;7.53;;
6723;SDS011;3399;52.530;13.304;2023-07-22T06:13:46;7.67;;;6.80;;
6723;SDS011;3399;52.530;13.304;2023-07-22T06:16:11;9.17;;;7.63;;
6723;SDS011;3399;52.530;13.304;2023-07-22T06:18:38;7.60;;;6.90;;
6723;SDS011;3399;52.530;13.304;2023-07-22T06:21:03;9.33;;;6.97;;
6723;SDS011;3399;52.530;13.304;2023-07-22T06:23:29;8.53;;;7.67;;
6723;SDS011;3399;52.530;13.304;2023-07-22T06:25:55;8.37;;;7.43;;
6723;SDS011;3399;52.530;13.304;2023-07-22T06:28:20;9.87;;;7.47;;
6723;SDS011;3399;52.530;13.304;2023-07-22T06:30:46;9.60;;;7.60;;
6723;SDS011;3399;52.530;13.304;2023-07-22T06:33:11;9.77;;;6.83;;
6723;SDS011;3399;52.530;13.304;2023-07-22T06:35:37;7.97;;;7.17;;
6723;SDS011;3399;52.530;13.304;2023-07-22T06:38:02;7.33;;;6.40;;
6723;SDS011;3399;52.530;13.304;2023-07-22T06:40:28;12.20;;;6.60;;
6723;SDS011;3399;52.530;13.304;2023-07-22T06:42:53;13.17;;;7.73;;
6723;SDS011;3399;52.530;13.304;2023-07-22T06:45:19;10.97;;;6.97;;
6723;SDS011;3399;52.530;13.304;2023-07-22T06:47:44;10.80;;;7.50;;
6723;SDS011;3399;52.530;13.304;2023-07-22T06:50:11;7.40;;;6.40;;
6723;SDS011;3399;52.530;13.304;2023-07-22T06:52:37;6.30;;;5.20;;
6723;SDS011;3399;52.530;13.304;2023-07-22T06:55:02;5.60;;;5.03;;
6723;SDS011;3399;52.530;13.304;2023-07-22T06:57:29;7.03;;;5.07;;
6723;SDS011;3399;52.530;13.304;2023-07-22T06:59:54;8.53;;;5.07;;
6723;SDS011;3399;52.530;13.304;2023-07-22T07:02:20;4.97;;;4.10;;
6723;SDS011;3399;52.530;13.304;2023-07-22T07:04:46;4.87;;;4.37;;
6723;SDS011;3399;52.530;13.304;2023-07-22T07:07:12;7.13;;;4.87;;
6723;SDS011;3399;52.530;13.304;2023-07-22T07:09:38;6.00;;;4.47;;
6723;SDS011;3399;52.530;13.304;2023-07-22T07:12:05;6.00;;;4.50;;
6723;SDS011;3399;52.530;13.304;2023-07-22T07:14:32;8.23;;;4.73;;
6723;SDS011;3399;52.530;13.304;2023-07-22T07:16:58;6.77;;;4.00;;
6723;SDS011;3399;52.530;13.304;2023-07-22T07:19:24;5.73;;;4.10;;
6723;SDS011;3399;52.530;13.304;2023-07-22T07:21:50;5.80;;;4.10;;
6723;SDS011;3399;52.530;13.304;2023-07-22T07:24:16;4.07;;;3.73;;
6723;SDS011;3399;52.530;13.304;2023-07-22T07:26:41;6.60;;;5.03;;
6723;SDS011;3399;52.530;13.304;2023-07-22T07:29:07;5.50;;;4.33;;
6723;SDS011;3399;52.530;13.304;2023-07-22T07:31:43;7.60;;;4.50;;
6723;SDS011;3399;52.530;13.304;2023-07-22T07:34:08;7.60;;;4.70;;
6723;SDS011;3399;52.530;13.304;2023-07-22T07:36:34;6.50;;;3.93;;
6723;SDS011;3399;52.530;13.304;2023-07-22T07:38:59;6.43;;;4.80;;
6723;SDS011;3399;52.530;13.304;2023-07-22T07:41:25;6.20;;;4.33;;
6723;SDS011;3399;52.530;13.304;2023-07-22T07:43:50;7.13;;;4.67;;
6723;SDS011;3399;52.530;13.304;2023-07-22T07:46:20;7.83;;;4.80;;
6723;SDS011;3399;52.530;13.304;2023-07-22T07:48:50;8.83;;;4.73;;
6723;SDS011;3399;52.530;13.304;2023-07-22T07:51:18;6.63;;;5.77;;
6723;SDS011;3399;52.530;13.304;2023-07-22T07:53:45;6.47;;;4.23;;
6723;SDS011;3399;52.530;13.304;2023-07-22T07:56:14;5.90;;;4.43;;
6723;SDS011;3399;52.530;13.304;2023-07-22T07:58:41;5.30;;;4.43;;
6723;SDS011;3399;52.530;13.304;2023-07-22T08:01:06;5.07;;;4.40;;
6723;SDS011;3399;52.530;13.304;2023-07-22T08:03:32;10.90;;;5.97;;
6723;SDS011;3399;52.530;13.304;2023-07-22T08:05:59;7.77;;;5.20;;
6723;SDS011;3399;52.530;13.304;2023-07-22T08:08:25;6.77;;;4.53;;
6723;SDS011;3399;52.530;13.304;2023-07-22T08:11:00;6.03;;;4.83;;
6723;SDS011;3399;52.530;13.304;2023-07-22T08:13:31;4.80;;;4.40;;
6723;SDS011;3399;52.530;13.304;2023-07-22T08:15:59;6.30;;;4.10;;
6723;SDS011;3399;52.530;13.304;2023-07-22T08:18:29;6.80;;;5.03;;
6723;SDS011;3399;52.530;13.304;2023-07-22T08:20:55;5.27;;;4.03;;
6723;SDS011;3399;52.530;13.304;2023-07-22T08:23:21;8.30;;;5.13;;
6723;SDS011;3399;52.530;13.304;2023-07-22T08:25:47;6.77;;;5.27;;
6723;SDS011;3399;52.530;13.304;2023-07-22T08:28:13;5.90;;;4.53;;
6723;SDS011;3399;52.530;13.304;2023-07-22T08:30:39;6.40;;;4.97;;
6723;SDS011;3399;52.530;13.304;2023-07-22T08:33:05;4.87;;;4.23;;
6723;SDS011;3399;52.530;13.304;2023-07-22T08:35:37;5.83;;;5.23;;
6723;SDS011;3399;52.530;13.304;2023-07-22T08:38:04;5.63;;;4.40;;
6723;SDS011;3399;52.530;13.304;2023-07-22T08:40:33;8.77;;;4.27;;
6723;SDS011;3399;52.530;13.304;2023-07-22T08:43:03;7.10;;;4.50;;
6723;SDS011;3399;52.530;13.304;2023-07-22T08:45:32;4.80;;;4.30;;
6723;SDS011;3399;52.530;13.304;2023-07-22T08:48:02;4.70;;;4.20;;
6723;SDS011;3399;52.530;13.304;2023-07-22T08:50:45;7.13;;;4.27;;
6723;SDS011;3399;52.530;13.304;2023-07-22T08:53:27;6.00;;;4.67;;
6723;SDS011;3399;52.530;13.304;2023-07-22T09:02:37;4.70;;;4.27;;
6723;SDS011;3399;52.530;13.304;2023-07-22T09:05:05;3.93;;;3.17;;
6723;SDS011;3399;52.530;13.304;2023-07-22T09:07:31;5.13;;;4.07;;
6723;SDS011;3399;52.530;13.304;2023-07-22T09:09:57;6.10;;;4.57;;
6723;SDS011;3399;52.530;13.304;2023-07-22T09:12:23;8.03;;;4.60;;
6723;SDS011;3399;52.530;13.304;2023-07-22T09:14:49;6.67;;;4.20;;
6723;SDS011;3399;52.530;13.304;2023-07-22T09:17:15;5.77;;;4.13;;
6723;SDS011;3399;52.530;13.304;2023-07-22T09:19:41;4.47;;;4.07;;
6723;SDS011;3399;52.530;13.304;2023-07-22T09:22:09;9.60;;;4.00;;
6723;SDS011;3399;52.530;13.304;2023-07-22T09:24:35;9.27;;;4.23;;
6723;SDS011;3399;52.530;13.304;2023-07-22T09:27:00;4.80;;;3.87;;
6723;SDS011;3399;52.530;13.304;2023-07-22T09:29:36;6.67;;;4.23;;
6723;SDS011;3399;52.530;13.304;2023-07-22T09:32:04;3.87;;;3.47;;
6723;SDS011;3399;52.530;13.304;2023-07-22T09:34:30;4.37;;;3.90;;
6723;SDS011;3399;52.530;13.304;2023-07-22T09:36:57;4.00;;;3.33;;
6723;SDS011;3399;52.530;13.304;2023-07-22T09:39:25;6.23;;;3.53;;
6723;SDS011;3399;52.530;13.304;2023-07-22T09:41:52;6.43;;;3.63;;
6723;SDS011;3399;52.530;13.304;2023-07-22T09:44:20;7.47;;;3.10;;
6723;SDS011;3399;52.530;13.304;2023-07-22T09:46:49;3.93;;;3.10;;
6723;SDS011;3399;52.530;13.304;2023-07-22T09:49:16;4.97;;;3.50;;
6723;SDS011;3399;52.530;13.304;2023-07-22T09:51:43;2.80;;;2.60;;
6723;SDS011;3399;52.530;13.304;2023-07-22T09:54:08;4.30;;;3.20;;
6723;SDS011;3399;52.530;13.304;2023-07-22T09:56:43;5.03;;;2.83;;
6723;SDS011;3399;52.530;13.304;2023-07-22T09:59:12;3.73;;;2.50;;
6723;SDS011;3399;52.530;13.304;2023-07-22T10:01:39;3.53;;;3.20;;
6723;SDS011;3399;52.530;13.304;2023-07-22T10:04:06;4.93;;;2.80;;
6723;SDS011;3399;52.530;13.304;2023-07-22T10:06:32;4.07;;;2.80;;
6723;SDS011;3399;52.530;13.304;2023-07-22T10:09:05;4.20;;;2.87;;
6723;SDS011;3399;52.530;13.304;2023-07-22T10:11:33;2.87;;;2.67;;
6723;SDS011;3399;52.530;13.304;2023-07-22T10:14:01;3.67;;;2.90;;
6723;SDS011;3399;52.530;13.304;2023-07-22T10:16:27;3.10;;;2.87;;
6723;SDS011;3399;52.530;13.304;2023-07-22T10:18:53;3.00;;;2.70;;
6723;SDS011;3399;52.530;13.304;2023-07-22T10:21:19;3.33;;;2.30;;
6723;SDS011;3399;52.530;13.304;2023-07-22T10:23:46;5.27;;;3.10;;
6723;SDS011;3399;52.530;13.304;2023-07-22T10:26:13;3.83;;;2.67;;
6723;SDS011;3399;52.530;13.304;2023-07-22T10:28:43;5.23;;;3.20;;
6723;SDS011;3399;52.530;13.304;2023-07-22T10:31:11;2.97;;;2.77;;
6723;SDS011;3399;52.530;13.304;2023-07-22T10:33:46;2.73;;;2.53;;
6723;SDS011;3399;52.530;13.304;2023-07-22T10:36:13;3.77;;;3.40;;
6723;SDS011;3399;52.530;13.304;2023-07-22T10:38:41;3.40;;;2.60;;
6723;SDS011;3399;52.530;13.304;2023-07-22T10:41:14;4.50;;;2.97;;
6723;SDS011;3399;52.530;13.304;2023-07-22T10:43:53;4.23;;;2.90;;
6723;SDS011;3399;52.530;13.304;2023-07-22T10:46:34;3.80;;;3.13;;
6723;SDS011;3399;52.530;13.304;2023-07-22T10:49:10;3.90;;;3.20;;
6723;SDS011;3399;52.530;13.304;2023-07-22T10:51:37;4.83;;;2.70;;
6723;SDS011;3399;52.530;13.304;2023-07-22T10:54:13;4.40;;;3.23;;
6723;SDS011;3399;52.530;13.304;2023-07-22T10:56:45;5.50;;;3.10;;
6723;SDS011;3399;52.530;13.304;2023-07-22T10:59:11;3.60;;;3.30;;
6723;SDS011;3399;52.530;13.304;2023-07-22T11:01:37;4.33;;;3.67;;
6723;SDS011;3399;52.530;13.304;2023-07-22T11:09:21;5.47;;;3.70;;
6723;SDS011;3399;52.530;13.304;2023-07-22T11:12:00;3.67;;;3.33;;
6723;SDS011;3399;52.530;13.304;2023-07-22T11:14:30;6.13;;;3.17;;
6723;SDS011;3399;52.530;13.304;2023-07-22T11:16:58;5.60;;;3.17;;
6723;SDS011;3399;52.530;13.304;2023-07-22T11:19:25;3.87;;;3.57;;
6723;SDS011;3399;52.530;13.304;2023-07-22T11:21:51;3.93;;;3.17;;
6723;SDS011;3399;52.530;13.304;2023-07-22T11:24:21;5.37;;;3.93;;
6723;SDS011;3399;52.530;13.304;2023-07-22T11:26:52;4.30;;;3.90;;
6723;SDS011;3399;52.530;13.304;2023-07-22T11:29:19;4.50;;;3.50;;
6723;SDS011;3399;52.530;13.304;2023-07-22T11:31:45;4.77;;;4.27;;
6723;SDS011;3399;52.530;13.304;2023-07-22T11:34:12;6.47;;;3.60;;
6723;SDS011;3399;52.530;13.304;2023-07-22T11:36:39;5.03;;;3.80;;
6723;SDS011;3399;52.530;13.304;2023-07-22T11:39:05;4.33;;;3.33;;
6723;SDS011;3399;52.530;13.304;2023-07-22T11:41:32;5.20;;;4.17;;
6723;SDS011;3399;52.530;13.304;2023-07-22T11:43:58;5.57;;;3.73;;
6723;SDS011;3399;52.530;13.304;2023-07-22T11:46:26;3.83;;;3.37;;
6723;SDS011;3399;52.530;13.304;2023-07-22T11:48:54;4.77;;;3.70;;
6723;SDS011;3399;52.530;13.304;2023-07-22T11:51:24;3.77;;;3.10;;
6723;SDS011;3399;52.530;13.304;2023-07-22T11:53:50;4.07;;;3.67;;
6723;SDS011;3399;52.530;13.304;2023-07-22T11:56:25;4.00;;;3.67;;
6723;SDS011;3399;52.530;13.304;2023-07-22T11:58:52;3.93;;;3.53;;
6723;SDS011;3399;52.530;13.304;2023-07-22T12:01:18;4.47;;;4.07;;
6723;SDS011;3399;52.530;13.304;2023-07-22T12:03:44;5.13;;;3.77;;
6723;SDS011;3399;52.530;13.304;2023-07-22T12:06:10;3.70;;;3.40;;
6723;SDS011;3399;52.530;13.304;2023-07-22T12:08:36;4.13;;;3.77;;
6723;SDS011;3399;52.530;13.304;2023-07-22T12:11:02;4.35;;;3.90;;
6723;SDS011;3399;52.530;13.304;2023-07-22T12:13:29;3.97;;;3.37;;
6723;SDS011;3399;52.530;13.304;2023-07-22T12:16:01;3.97;;;3.67;;
6723;SDS011;3399;52.530;13.304;2023-07-22T12:18:43;3.78;;;3.47;;
6723;SDS011;3399;52.530;13.304;2023-07-22T12:21:09;4.20;;;3.80;;
6723;SDS011;3399;52.530;13.304;2023-07-22T12:23:36;4.07;;;3.67;;
6723;SDS011;3399;52.530;13.304;2023-07-22T12:26:02;4.63;;;4.23;;
6723;SDS011;3399;52.530;13.304;2023-07-22T12:28:28;4.23;;;3.53;;
6723;SDS011;3399;52.530;13.304;2023-07-22T12:30:54;4.13;;;3.73;;
6723;SDS011;3399;52.530;13.304;2023-07-22T12:33:20;4.10;;;3.20;;
6723;SDS011;3399;52.530;13.304;2023-07-22T12:35:45;4.93;;;4.20;;
6723;SDS011;3399;52.530;13.304;2023-07-22T12:38:11;5.20;;;4.23;;
6723;SDS011;3399;52.530;13.304;2023-07-22T12:40:37;7.60;;;6.83;;
6723;SDS011;3399;52.530;13.304;2023-07-22T12:43:03;5.53;;;4.87;;
6723;SDS011;3399;52.530;13.304;2023-07-22T12:45:28;5.80;;;4.27;;
6723;SDS011;3399;52.530;13.304;2023-07-22T12:47:54;4.40;;;4.00;;
6723;SDS011;3399;52.530;13.304;2023-07-22T12:50:20;5.47;;;4.87;;
6723;SDS011;3399;52.530;13.304;2023-07-22T12:52:45;6.17;;;4.60;;
6723;SDS011;3399;52.530;13.304;2023-07-22T12:55:11;7.40;;;4.70;;
6723;SDS011;3399;52.530;13.304;2023-07-22T12:57:36;6.90;;;6.17;;
6723;SDS011;3399;52.530;13.304;2023-07-22T13:00:02;14.63;;;13.07;;
6723;SDS011;3399;52.530;13.304;2023-07-22T13:02:31;6.93;;;3.87;;
6723;SDS011;3399;52.530;13.304;2023-07-22T13:04:57;8.53;;;6.53;;
6723;SDS011;3399;52.530;13.304;2023-07-22T13:07:22;5.03;;;4.50;;
6723;SDS011;3399;52.530;13.304;2023-07-22T13:09:48;5.87;;;5.27;;
6723;SDS011;3399;52.530;13.304;2023-07-22T13:12:15;4.87;;;4.43;;
6723;SDS011;3399;52.530;13.304;2023-07-22T13:14:40;4.57;;;4.17;;
6723;SDS011;3399;52.530;13.304;2023-07-22T13:17:06;4.10;;;3.67;;
6723;SDS011;3399;52.530;13.304;2023-07-22T13:19:31;5.67;;;4.67;;
6723;SDS011;3399;52.530;13.304;2023-07-22T13:21:57;5.53;;;4.13;;
6723;SDS011;3399;52.530;13.304;2023-07-22T13:24:22;15.83;;;9.07;;
6723;SDS011;3399;52.530;13.304;2023-07-22T13:26:48;4.33;;;3.97;;
6723;SDS011;3399;52.530;13.304;2023-07-22T13:29:13;4.40;;;3.85;;
6723;SDS011;3399;52.530;13.304;2023-07-22T13:31:39;4.40;;;4.00;;
6723;SDS011;3399;52.530;13.304;2023-07-22T13:34:04;4.43;;;3.95;;
6723;SDS011;3399;52.530;13.304;2023-07-22T13:36:29;4.10;;;3.70;;
6723;SDS011;3399;52.530;13.304;2023-07-22T13:38:55;4.20;;;3.80;;
6723;SDS011;3399;52.530;13.304;2023-07-22T13:41:20;6.10;;;5.60;;
6723;SDS011;3399;52.530;13.304;2023-07-22T13:43:49;6.87;;;5.90;;
6723;SDS011;3399;52.530;13.304;2023-07-22T13:46:17;5.70;;;4.40;;
6723;SDS011;3399;52.530;13.304;2023-07-22T13:48:43;7.17;;;5.40;;
6723;SDS011;3399;52.530;13.304;2023-07-22T13:51:08;5.57;;;5.07;;
6723;SDS011;3399;52.530;13.304;2023-07-22T13:53:34;4.90;;;3.67;;
6723;SDS011;3399;52.530;13.304;2023-07-22T13:55:59;7.27;;;5.60;;
6723;SDS011;3399;52.530;13.304;2023-07-22T13:58:24;4.87;;;3.83;;
6723;SDS011;3399;52.530;13.304;2023-07-22T14:00:50;4.97;;;4.03;;
6723;SDS011;3399;52.530;13.304;2023-07-22T14:03:16;5.17;;;4.30;;
6723;SDS011;3399;52.530;13.304;2023-07-22T14:05:41;5.13;;;4.47;;
6723;SDS011;3399;52.530;13.304;2023-07-22T14:08:06;3.93;;;3.53;;
6723;SDS011;3399;52.530;13.304;2023-07-22T14:10:32;4.67;;;3.73;;
6723;SDS011;3399;52.530;13.304;2023-07-22T14:12:58;4.03;;;3.73;;
6723;SDS011;3399;52.530;13.304;2023-07-22T14:15:23;5.27;;;3.93;;
6723;SDS011;3399;52.530;13.304;2023-07-22T14:17:49;4.90;;;3.83;;
6723;SDS011;3399;52.530;13.304;2023-07-22T14:20:14;4.73;;;4.20;;
6723;SDS011;3399;52.530;13.304;2023-07-22T14:22:41;6.77;;;4.33;;
6723;SDS011;3399;52.530;13.304;2023-07-22T14:25:07;4.27;;;3.87;;
6723;SDS011;3399;52.530;13.304;2023-07-22T14:27:37;5.73;;;4.20;;
6723;SDS011;3399;52.530;13.304;2023-07-22T14:30:04;6.20;;;3.50;;
6723;SDS011;3399;52.530;13.304;2023-07-22T14:32:31;4.40;;;4.00;;
6723;SDS011;3399;52.530;13.304;2023-07-22T14:34:56;4.67;;;4.27;;
6723;SDS011;3399;52.530;13.304;2023-07-22T14:37:22;4.63;;;4.23;;
6723;SDS011;3399;52.530;13.304;2023-07-22T14:39:49;6.20;;;4.30;;
6723;SDS011;3399;52.530;13.304;2023-07-22T14:42:14;3.70;;;3.40;;
6723;SDS011;3399;52.530;13.304;2023-07-22T14:44:40;5.27;;;4.77;;
6723;SDS011;3399;52.530;13.304;2023-07-22T14:47:05;4.50;;;4.10;;
6723;SDS011;3399;52.530;13.304;2023-07-22T14:49:31;5.37;;;4.03;;
6723;SDS011;3399;52.530;13.304;2023-07-22T14:51:56;5.83;;;4.43;;
6723;SDS011;3399;52.530;13.304;2023-07-22T14:54:22;5.27;;;4.23;;
6723;SDS011;3399;52.530;13.304;2023-07-22T14:56:47;8.90;;;5.40;;
6723;SDS011;3399;52.530;13.304;2023-07-22T14:59:14;4.53;;;4.13;;
6723;SDS011;3399;52.530;13.304;2023-07-22T15:01:40;4.90;;;4.50;;
6723;SDS011;3399;52.530;13.304;2023-07-22T15:04:06;4.90;;;4.50;;
6723;SDS011;3399;52.530;13.304;2023-07-22T15:06:32;4.80;;;4.40;;
6723;SDS011;3399;52.530;13.304;2023-07-22T15:08:58;4.40;;;4.00;;